Time;durP1;ratioP1;P1;durP2;ratioP2;P2;SDS_P1;SDS_P2;PMS_P1;PMS_P2;Temp;Humidity;BMP_temperature;BMP_pressure;BME280_temperature;BME280_humidity;BME280_pressure;Samples;Min_cycle;Max_cycle;Signal;HPM_P1;HPM_P2
2021/12/13 00:02:30;;;;;;;116.10;33.40;;;10.30;99.90;;;;;;4997740;28;20049;-72
2021/12/13 00:05:10;;;;;;;127.30;34.22;;;10.40;99.90;;;;;;4997645;28;20050;-72
2021/12/13 00:07:40;;;;;;;147.00;37.17;;;10.40;99.90;;;;;;4997667;28;20052;-72
2021/12/13 00:10:17;;;;;;;115.65;33.70;;;10.40;99.90;;;;;;4997566;28;20049;-71
2021/12/13 00:12:47;;;;;;;100.38;32.75;;;10.40;99.90;;;;;;4997332;28;20045;-71
2021/12/13 00:15:35;;;;;;;103.90;32.55;;;10.40;99.90;;;;;;4980740;28;20049;-72
2021/12/13 00:18:05;;;;;;;101.93;32.60;;;10.40;99.90;;;;;;4980878;28;20080;-72
2021/12/13 00:20:37;;;;;;;96.47;31.48;;;10.40;99.90;;;;;;4981096;28;20042;-71
2021/12/13 00:23:16;;;;;;;105.40;32.63;;;10.40;99.90;;;;;;4997133;28;20092;-71
2021/12/13 00:25:46;;;;;;;102.97;32.92;;;10.40;99.90;;;;;;4997062;28;20052;-71
2021/12/13 00:28:15;;;;;;;88.30;32.25;;;10.40;99.90;;;;;;4996994;28;20092;-72
2021/12/13 00:30:52;;;;;;;113.43;35.08;;;10.40;99.90;;;;;;4996940;28;20081;-72
2021/12/13 00:33:51;;;;;;;111.10;35.47;;;10.40;99.90;;;;;;4996935;28;20057;-72
2021/12/13 00:36:32;;;;;;;107.30;35.40;;;10.40;99.90;;;;;;4997100;28;20045;-72
2021/12/13 00:39:21;;;;;;;71.32;29.10;;;10.40;99.90;;;;;;4980652;28;20049;-72
2021/12/13 00:41:50;;;;;;;84.85;30.40;;;10.40;99.90;;;;;;4995856;28;20050;-72
2021/12/13 00:44:23;;;;;;;82.97;32.25;;;10.40;99.90;;;;;;4996811;28;20081;-72
2021/12/13 00:46:51;;;;;;;81.57;31.95;;;10.40;99.90;;;;;;4996636;28;20042;-72
2021/12/13 00:49:21;;;;;;;103.20;34.60;;;10.40;99.90;;;;;;5012896;28;20092;-72
2021/12/13 00:51:50;;;;;;;107.70;34.95;;;10.40;99.90;;;;;;4996667;28;20048;-71
2021/12/13 00:54:23;;;;;;;106.95;35.97;;;10.40;99.90;;;;;;4996192;28;20103;-72
2021/12/13 00:56:58;;;;;;;104.45;34.20;;;10.40;99.90;;;;;;4996423;28;20482;-72
2021/12/13 00:59:30;;;;;;;102.47;34.40;;;10.40;99.90;;;;;;4996399;28;20568;-72
2021/12/13 01:02:13;;;;;;;96.47;33.45;;;10.40;99.90;;;;;;4996421;28;20204;-72
2021/12/13 01:04:47;;;;;;;97.50;33.40;;;10.40;99.90;;;;;;4996305;28;20057;-71
2021/12/13 01:07:41;;;;;;;84.97;32.83;;;10.40;99.90;;;;;;4996234;28;20293;-72
2021/12/13 01:10:49;;;;;;;77.43;29.77;;;10.40;99.90;;;;;;4996465;28;20403;-72
2021/12/13 01:13:31;;;;;;;67.18;29.10;;;10.40;99.90;;;;;;4996178;28;20131;-73
2021/12/13 01:16:32;;;;;;;59.00;26.05;;;10.40;99.90;;;;;;4995881;28;20139;-72
2021/12/13 01:21:58;;;;;;;44.33;21.45;;;10.40;99.90;;;;;;4996057;28;20042;-72
2021/12/13 01:27:37;;;;;;;39.63;20.17;;;10.40;99.90;;;;;;4996196;28;20049;-72
2021/12/13 01:30:07;;;;;;;41.22;20.80;;;10.40;99.90;;;;;;4995977;28;20104;-72
2021/12/13 01:32:40;;;;;;;34.70;18.00;;;10.40;99.90;;;;;;4996579;28;20080;-71
2021/12/13 01:35:11;;;;;;;34.55;17.42;;;10.50;99.90;;;;;;4995802;28;20045;-72
2021/12/13 01:37:37;;;;;;;37.58;19.85;;;10.40;99.90;;;;;;4996100;28;20033;-72
2021/12/13 01:40:11;;;;;;;37.25;18.30;;;10.40;99.90;;;;;;4996008;28;20544;-71
2021/12/13 01:42:39;;;;;;;37.17;18.90;;;10.40;99.90;;;;;;4995872;28;20053;-72
2021/12/13 01:45:09;;;;;;;31.50;18.13;;;10.40;99.90;;;;;;4995937;28;20053;-72
2021/12/13 01:47:40;;;;;;;34.95;17.17;;;10.40;99.90;;;;;;4996181;28;20041;-72
2021/12/13 01:50:09;;;;;;;32.22;18.13;;;10.40;99.90;;;;;;4996049;28;20620;-72
2021/12/13 01:52:37;;;;;;;36.95;19.83;;;10.40;99.90;;;;;;4995701;28;20050;-72
2021/12/13 01:55:20;;;;;;;37.92;19.70;;;10.40;99.90;;;;;;4995586;28;20490;-72
2021/12/13 01:57:50;;;;;;;25.67;16.52;;;10.40;99.90;;;;;;4995713;28;20048;-72
2021/12/13 02:00:44;;;;;;;33.75;19.02;;;10.40;99.90;;;;;;4995679;28;20056;-72
2021/12/13 02:03:11;;;;;;;33.05;18.88;;;10.40;99.90;;;;;;4995673;28;20042;-72
2021/12/13 02:05:37;;;;;;;31.38;18.98;;;10.40;99.90;;;;;;4997877;28;20126;-72
2021/12/13 02:08:10;;;;;;;35.53;20.35;;;10.40;99.90;;;;;;4999655;28;20123;-72
2021/12/13 02:10:57;;;;;;;33.88;19.80;;;10.40;99.90;;;;;;4999598;28;20053;-72
2021/12/13 02:13:27;;;;;;;31.30;19.60;;;10.50;99.90;;;;;;4999525;28;20056;-72
2021/12/13 02:18:46;;;;;;;36.60;21.27;;;10.50;99.90;;;;;;4999388;28;20117;-71
2021/12/13 02:21:23;;;;;;;45.72;23.10;;;10.50;99.90;;;;;;4999364;28;20041;-71
2021/12/13 02:23:51;;;;;;;39.70;21.77;;;10.50;99.90;;;;;;4999572;28;20116;-72
2021/12/13 02:26:17;;;;;;;51.15;24.05;;;10.50;99.90;;;;;;4999272;28;20045;-72
2021/12/13 02:28:47;;;;;;;37.85;22.40;;;10.50;99.90;;;;;;4999484;28;20034;-72
2021/12/13 02:31:20;;;;;;;42.70;22.63;;;10.50;99.90;;;;;;4999192;28;20049;-72
2021/12/13 02:33:51;;;;;;;;;;;10.50;99.90;;;;;;4999470;28;20057;-72
2021/12/13 02:36:27;;;;;;;40.42;21.73;;;10.40;99.90;;;;;;4999019;28;19921;-72
2021/12/13 02:38:57;;;;;;;34.17;20.25;;;10.40;99.90;;;;;;5016894;28;20045;-72
2021/12/13 02:41:27;;;;;;;36.95;20.20;;;10.50;99.90;;;;;;4999042;28;20095;-71
2021/12/13 02:43:58;;;;;;;36.95;20.35;;;10.50;99.90;;;;;;4998943;28;20042;-71
2021/12/13 02:46:24;;;;;;;38.50;19.42;;;10.50;99.90;;;;;;4998975;28;20046;-72
2021/12/13 02:48:54;;;;;;;43.17;21.35;;;10.50;99.90;;;;;;4998861;28;20045;-72
2021/12/13 02:51:51;;;;;;;36.53;19.73;;;10.50;99.90;;;;;;4999060;28;20128;-72
2021/12/13 02:54:24;;;;;;;37.33;19.27;;;10.50;99.90;;;;;;4998892;28;20120;-72
2021/12/13 02:56:52;;;;;;;31.08;18.63;;;10.50;99.90;;;;;;4982565;28;20490;-72
2021/12/13 02:59:21;;;;;;;34.42;19.38;;;10.50;99.90;;;;;;4998682;28;20069;-72
2021/12/13 03:02:01;;;;;;;33.20;19.45;;;10.50;99.90;;;;;;4998649;28;20120;-71
2021/12/13 03:04:29;;;;;;;33.22;19.08;;;10.50;99.90;;;;;;4998493;28;20080;-72
2021/12/13 03:07:01;;;;;;;34.75;19.75;;;10.50;99.90;;;;;;4998487;28;20037;-72
2021/12/13 03:09:29;;;;;;;34.55;19.50;;;10.50;99.90;;;;;;4982520;28;20046;-72
2021/12/13 03:11:56;;;;;;;33.55;19.17;;;10.40;99.90;;;;;;4998428;28;20041;-72
2021/12/13 03:14:26;;;;;;;37.92;20.48;;;10.40;99.90;;;;;;4998071;28;20506;-72
2021/12/13 03:17:26;;;;;;;32.80;17.80;;;10.40;99.90;;;;;;4997801;28;20034;-72
2021/12/13 03:20:23;;;;;;;31.33;17.73;;;10.50;99.90;;;;;;4998625;28;20045;-72
2021/12/13 03:23:08;;;;;;;29.80;16.48;;;10.40;99.90;;;;;;4998450;28;20042;-71
2021/12/13 03:25:53;;;;;;;25.15;14.93;;;10.40;99.90;;;;;;4981863;28;20046;-71
2021/12/13 03:28:49;;;;;;;29.23;17.10;;;10.40;99.90;;;;;;4998445;28;20167;-72
2021/12/13 03:31:25;;;;;;;31.77;17.50;;;10.40;99.90;;;;;;4998313;28;20053;-71
2021/12/13 03:33:51;;;;;;;32.03;16.27;;;10.40;99.90;;;;;;4981687;28;20092;-71
2021/12/13 03:36:36;;;;;;;35.22;17.50;;;10.30;99.90;;;;;;4998200;28;20033;-71
2021/12/13 03:39:06;;;;;;;29.95;16.73;;;10.30;99.90;;;;;;4997923;28;20042;-71
2021/12/13 03:41:35;;;;;;;31.60;16.75;;;10.30;99.90;;;;;;4998003;28;20038;-71
2021/12/13 03:44:05;;;;;;;31.55;16.30;;;10.30;99.90;;;;;;4997793;28;20124;-71
2021/12/13 03:46:35;;;;;;;32.00;16.90;;;10.30;99.90;;;;;;4998012;28;20046;-71
2021/12/13 03:49:05;;;;;;;31.27;16.83;;;10.20;99.90;;;;;;4997682;28;20042;-72
2021/12/13 03:51:35;;;;;;;23.65;15.00;;;10.20;99.90;;;;;;4997785;28;20076;-72
2021/12/13 03:54:04;;;;;;;34.85;15.07;;;10.20;99.90;;;;;;4997559;28;20065;-72
2021/12/13 03:56:35;;;;;;;29.35;14.23;;;10.20;99.90;;;;;;4997820;28;20081;-72
2021/12/13 03:59:15;;;;;;;23.77;13.82;;;10.20;99.90;;;;;;4997830;28;20124;-72
2021/12/13 04:01:45;;;;;;;24.55;13.68;;;10.20;99.90;;;;;;4997482;28;20037;-72
2021/12/13 04:04:32;;;;;;;22.58;12.63;;;10.10;99.90;;;;;;5014051;28;20037;-72
2021/12/13 04:07:08;;;;;;;21.48;11.85;;;10.10;99.90;;;;;;4997472;28;20056;-71
2021/12/13 04:09:34;;;;;;;23.25;11.00;;;10.10;99.90;;;;;;4997417;28;20046;-71
2021/12/13 04:12:03;;;;;;;22.98;11.93;;;10.00;99.90;;;;;;4997542;28;20041;-71
2021/12/13 04:14:36;;;;;;;21.60;11.52;;;10.00;99.90;;;;;;4996944;28;20514;-71
2021/12/13 04:17:22;;;;;;;23.13;12.15;;;10.00;99.90;;;;;;4997219;28;20049;-71
2021/12/13 04:19:54;;;;;;;18.08;10.82;;;10.00;99.90;;;;;;4997707;28;20053;-71
2021/12/13 04:22:42;;;;;;;20.40;10.80;;;9.90;99.90;;;;;;4997111;28;20509;-71
2021/12/13 04:25:19;;;;;;;18.70;10.88;;;10.00;99.90;;;;;;4996209;28;20145;-72
2021/12/13 04:27:53;;;;;;;18.20;10.25;;;9.90;99.90;;;;;;4996572;28;20079;-72
2021/12/13 04:30:28;;;;;;;17.55;9.43;;;9.90;99.90;;;;;;4996919;28;20391;-72
2021/12/13 04:32:58;;;;;;;21.67;10.68;;;9.90;99.90;;;;;;4996987;28;20054;-72
2021/12/13 04:35:25;;;;;;;20.42;9.80;;;9.80;99.90;;;;;;4996823;28;20042;-72
2021/12/13 04:37:59;;;;;;;17.30;9.82;;;9.80;99.90;;;;;;4996852;28;20127;-72
2021/12/13 04:40:45;;;;;;;20.98;9.80;;;9.80;99.90;;;;;;4996850;28;20413;-72
2021/12/13 04:43:16;;;;;;;15.98;9.50;;;9.70;99.90;;;;;;4996770;28;20044;-72
2021/12/13 04:45:45;;;;;;;18.55;10.10;;;9.70;99.90;;;;;;4996627;28;20072;-72
2021/12/13 04:48:14;;;;;;;17.90;10.10;;;9.60;99.90;;;;;;4996882;28;20129;-71
2021/12/13 04:50:56;;;;;;;19.30;10.10;;;9.70;99.90;;;;;;4996589;28;20045;-71
2021/12/13 04:53:35;;;;;;;23.55;10.68;;;9.60;99.90;;;;;;4996850;28;20071;-72
2021/12/13 04:56:05;;;;;;;21.80;9.75;;;9.60;99.90;;;;;;4996472;28;20045;-72
2021/12/13 04:58:31;;;;;;;22.13;10.30;;;9.60;99.90;;;;;;4997800;28;20030;-72
2021/12/13 05:01:02;;;;;;;16.88;9.95;;;9.60;99.90;;;;;;4996456;28;20052;-72
2021/12/13 05:03:30;;;;;;;19.58;10.35;;;9.60;99.90;;;;;;4996415;28;20056;-71
2021/12/13 05:06:05;;;;;;;21.88;10.00;;;9.60;99.90;;;;;;4996217;28;20061;-71
2021/12/13 05:08:31;;;;;;;20.30;11.05;;;9.60;99.90;;;;;;4996322;28;20446;-71
2021/12/13 05:11:04;;;;;;;19.67;11.05;;;9.60;99.90;;;;;;4996531;28;20072;-71
2021/12/13 05:13:29;;;;;;;;;;;9.60;99.90;;;;;;4996601;28;20052;-71
2021/12/13 05:16:09;;;;;;;18.05;10.25;;;9.50;99.90;;;;;;4979822;28;19922;-71
2021/12/13 05:18:44;;;;;;;18.13;11.38;;;9.60;99.90;;;;;;4996174;28;20092;-71
2021/12/13 05:21:16;;;;;;;16.98;11.00;;;9.50;99.90;;;;;;4996055;28;20038;-71
2021/12/13 05:23:59;;;;;;;27.45;12.45;;;9.60;99.90;;;;;;4996288;28;20068;-71
2021/12/13 05:26:35;;;;;;;18.80;11.40;;;9.60;99.90;;;;;;4996358;28;20538;-71
2021/12/13 05:29:04;;;;;;;18.48;10.70;;;9.60;99.90;;;;;;4996043;28;20041;-71
2021/12/13 05:31:32;;;;;;;16.73;10.35;;;9.50;99.90;;;;;;4995900;28;20124;-71
2021/12/13 05:34:03;;;;;;;15.90;10.50;;;9.50;99.90;;;;;;4996057;28;20118;-71
2021/12/13 05:36:33;;;;;;;17.42;9.95;;;9.60;99.90;;;;;;4995940;28;20460;-71
2021/12/13 05:39:13;;;;;;;19.10;10.90;;;9.60;99.90;;;;;;4995968;28;20042;-71
2021/12/13 05:41:48;;;;;;;14.13;9.48;;;9.60;99.90;;;;;;4979700;28;20044;-71
2021/12/13 05:44:21;;;;;;;15.88;9.23;;;9.60;99.90;;;;;;4995755;28;20498;-71
2021/12/13 05:46:49;;;;;;;19.85;9.50;;;9.60;99.90;;;;;;4996066;28;20415;-71
2021/12/13 05:49:20;;;;;;;13.88;8.43;;;9.60;99.90;;;;;;4995979;28;20046;-71
2021/12/13 05:51:50;;;;;;;16.25;8.35;;;9.60;99.90;;;;;;4995678;28;20091;-71
2021/12/13 05:54:22;;;;;;;14.65;9.25;;;9.60;99.90;;;;;;4995845;28;20398;-71
2021/12/13 05:56:56;;;;;;;13.15;8.27;;;9.60;99.90;;;;;;4995946;28;20406;-71
2021/12/13 05:59:31;;;;;;;18.00;7.97;;;9.60;99.90;;;;;;4995746;28;20042;-71
2021/12/13 06:02:11;;;;;;;16.52;8.13;;;9.60;99.90;;;;;;4995926;28;20375;-71
2021/12/13 06:04:54;;;;;;;13.32;7.95;;;9.60;99.90;;;;;;4995573;28;20046;-72
2021/12/13 06:07:24;;;;;;;;;;;9.60;99.90;;;;;;4996045;28;20096;-72
2021/12/13 06:09:57;;;;;;;14.07;7.93;;;9.60;99.90;;;;;;4995509;28;19924;-72
2021/12/13 06:12:25;;;;;;;;;;;9.60;99.90;;;;;;4995954;28;20076;-72
2021/12/13 06:14:53;;;;;;;12.05;8.18;;;9.50;99.90;;;;;;4995239;28;20431;-72
2021/12/13 06:17:27;;;;;;;14.23;8.70;;;9.60;99.90;;;;;;4995728;28;20042;-71
2021/12/13 06:20:00;;;;;;;16.30;8.30;;;9.60;99.90;;;;;;4995785;28;20046;-71
2021/12/13 06:22:28;;;;;;;14.77;8.88;;;9.60;99.90;;;;;;4995785;28;20042;-71
2021/12/13 06:25:03;;;;;;;15.77;9.60;;;9.60;99.90;;;;;;4995376;28;20041;-71
2021/12/13 06:27:32;;;;;;;13.73;9.30;;;9.60;99.90;;;;;;4995407;28;20120;-71
2021/12/13 06:30:06;;;;;;;15.68;8.98;;;9.60;99.90;;;;;;4995334;28;20129;-71
2021/12/13 06:32:57;;;;;;;15.57;10.52;;;9.60;99.90;;;;;;4995683;28;20109;-71
2021/12/13 06:35:44;;;;;;;13.93;10.00;;;9.60;99.90;;;;;;4995255;28;20065;-71
2021/12/13 06:38:19;;;;;;;15.85;10.32;;;9.60;99.90;;;;;;4995556;28;20044;-71
2021/12/13 06:40:58;;;;;;;16.73;10.63;;;9.60;99.90;;;;;;4979218;28;20121;-71
2021/12/13 06:43:33;;;;;;;15.77;11.52;;;9.60;99.90;;;;;;4995263;28;20038;-70
2021/12/13 06:46:01;;;;;;;14.02;10.80;;;9.50;99.90;;;;;;4995196;28;20042;-71
2021/12/13 06:48:45;;;;;;;18.25;12.90;;;9.60;99.90;;;;;;4995517;28;20049;-71
2021/12/13 06:51:14;;;;;;;17.52;12.10;;;9.60;99.90;;;;;;4996572;28;20510;-71
2021/12/13 06:53:57;;;;;;;18.25;12.48;;;9.60;99.90;;;;;;4998914;28;20065;-71
2021/12/13 06:56:30;;;;;;;17.73;12.73;;;9.60;99.90;;;;;;4998799;28;20161;-71
2021/12/13 06:58:58;;;;;;;20.05;13.02;;;9.60;99.90;;;;;;4998791;28;20041;-71
2021/12/13 07:01:27;;;;;;;20.42;13.18;;;9.60;99.90;;;;;;4998660;28;20038;-71
2021/12/13 07:04:03;;;;;;;21.40;14.43;;;9.60;99.90;;;;;;4998530;28;20525;-71
2021/12/13 07:06:29;;;;;;;23.48;14.82;;;9.60;99.90;;;;;;4998562;28;20081;-71
2021/12/13 07:09:14;;;;;;;20.95;14.07;;;9.60;99.90;;;;;;4998489;28;20073;-71
2021/12/13 07:11:44;;;;;;;20.00;14.23;;;9.50;99.90;;;;;;4982380;28;20053;-71
2021/12/13 07:14:13;;;;;;;23.10;14.70;;;9.50;99.90;;;;;;4998355;28;20046;-71
2021/12/13 07:16:47;;;;;;;25.30;15.65;;;9.50;99.90;;;;;;4998337;28;20037;-71
2021/12/13 07:19:19;;;;;;;21.88;15.40;;;9.50;99.90;;;;;;4998433;28;20041;-71
2021/12/13 07:22:02;;;;;;;24.23;14.97;;;9.60;99.90;;;;;;4982037;28;20065;-71
2021/12/13 07:24:42;;;;;;;22.92;15.88;;;9.60;99.90;;;;;;4998259;28;20129;-72
2021/12/13 07:27:12;;;;;;;24.27;16.20;;;9.60;99.90;;;;;;4998443;28;20156;-72
2021/12/13 07:29:44;;;;;;;23.00;16.30;;;9.60;99.90;;;;;;4998487;28;20057;-72
2021/12/13 07:32:30;;;;;;;21.38;16.02;;;9.50;99.90;;;;;;4998166;28;20042;-72
2021/12/13 07:35:09;;;;;;;26.17;16.85;;;9.60;99.90;;;;;;4998083;28;20056;-72
2021/12/13 07:37:36;;;;;;;23.08;16.83;;;9.60;99.90;;;;;;4998022;28;20498;-72
2021/12/13 07:40:20;;;;;;;26.52;17.98;;;9.50;99.90;;;;;;4998117;28;20613;-72
2021/12/13 07:43:05;;;;;;;25.27;17.52;;;9.50;99.90;;;;;;4981699;28;20034;-72
2021/12/13 07:45:52;;;;;;;22.45;18.10;;;9.50;99.90;;;;;;4997837;28;20052;-72
2021/12/13 07:48:25;;;;;;;26.48;18.73;;;9.50;99.90;;;;;;4998043;28;20112;-72
2021/12/13 07:51:05;;;;;;;24.17;19.38;;;9.50;99.90;;;;;;4997701;28;20383;-72
2021/12/13 07:54:05;;;;;;;24.35;19.70;;;9.60;99.90;;;;;;4997725;28;20092;-72
2021/12/13 07:56:37;;;;;;;25.63;19.40;;;9.50;99.90;;;;;;4946502;28;20485;-72
2021/12/13 07:59:18;;;;;;;26.70;20.15;;;9.50;99.90;;;;;;4997860;28;20149;-72
2021/12/13 08:01:49;;;;;;;28.90;20.58;;;9.50;99.90;;;;;;4997204;28;20050;-72
2021/12/13 08:04:29;;;;;;;30.33;21.48;;;9.50;99.90;;;;;;4996927;28;20403;-72
2021/12/13 08:07:05;;;;;;;27.45;20.33;;;9.50;99.90;;;;;;4997728;28;20038;-72
2021/12/13 08:09:31;;;;;;;27.95;22.08;;;9.50;99.90;;;;;;4997447;28;20038;-72
2021/12/13 08:12:13;;;;;;;27.15;21.88;;;9.50;99.90;;;;;;4981428;28;20049;-72
2021/12/13 08:14:41;;;;;;;29.00;22.02;;;9.50;99.90;;;;;;4996993;28;20477;-72
2021/12/13 08:17:11;;;;;;;29.42;22.98;;;9.60;99.90;;;;;;4997238;28;20037;-72
2021/12/13 08:19:37;;;;;;;35.65;24.42;;;9.50;99.90;;;;;;4997446;28;20042;-72
2021/12/13 08:22:09;;;;;;;30.90;23.77;;;9.50;99.90;;;;;;4997232;28;20030;-72
2021/12/13 08:24:50;;;;;;;34.95;24.25;;;9.50;99.90;;;;;;4981194;28;20049;-72
2021/12/13 08:27:24;;;;;;;33.15;24.88;;;9.50;99.90;;;;;;4997143;28;20052;-72
2021/12/13 08:29:50;;;;;;;30.83;24.23;;;9.60;99.90;;;;;;4981249;28;20049;-72
2021/12/13 08:32:23;;;;;;;31.33;25.60;;;9.50;99.90;;;;;;4997171;28;20121;-72
2021/12/13 08:34:56;;;;;;;32.20;24.55;;;9.60;99.90;;;;;;4996786;28;20101;-72
2021/12/13 08:37:30;;;;;;;30.42;24.75;;;9.50;99.90;;;;;;4996895;28;20125;-72
2021/12/13 08:40:01;;;;;;;31.95;24.63;;;9.60;99.90;;;;;;4996859;28;20403;-71
2021/12/13 08:42:35;;;;;;;32.97;24.45;;;9.60;99.90;;;;;;4996825;28;20053;-71
2021/12/13 08:45:35;;;;;;;32.08;25.23;;;9.50;99.90;;;;;;4996935;28;20049;-71
2021/12/13 08:48:06;;;;;;;29.55;23.88;;;9.60;99.90;;;;;;4997025;28;20045;-71
2021/12/13 08:50:38;;;;;;;32.47;23.85;;;9.50;99.90;;;;;;4996630;28;20041;-71
2021/12/13 08:53:27;;;;;;;28.92;24.40;;;9.60;99.90;;;;;;4996656;28;20041;-71
2021/12/13 08:56:23;;;;;;;28.63;22.63;;;9.60;99.90;;;;;;4996471;28;20101;-72
2021/12/13 08:59:16;;;;;;;33.05;23.55;;;9.60;99.90;;;;;;5010640;28;20140;-72
2021/12/13 09:01:50;;;;;;;29.58;23.60;;;9.50;99.90;;;;;;4996508;28;20038;-72
2021/12/13 09:04:52;;;;;;;29.90;23.17;;;9.50;99.90;;;;;;4996382;28;20045;-72
2021/12/13 09:07:23;;;;;;;31.63;22.73;;;9.60;99.90;;;;;;4996244;28;20410;-72
2021/12/13 09:09:49;;;;;;;29.90;22.98;;;9.60;99.90;;;;;;4996316;28;20041;-72
2021/12/13 09:12:42;;;;;;;32.60;22.98;;;9.50;99.90;;;;;;4996205;28;20088;-72
2021/12/13 09:15:21;;;;;;;28.85;22.08;;;9.50;99.90;;;;;;4995593;28;20151;-72
2021/12/13 09:17:48;;;;;;;29.55;21.95;;;9.50;99.90;;;;;;4996181;28;20087;-72
2021/12/13 09:20:24;;;;;;;28.58;22.60;;;9.60;99.90;;;;;;4996125;28;20498;-72
2021/12/13 09:22:57;;;;;;;29.08;21.08;;;9.60;99.90;;;;;;4996124;28;20512;-72
2021/12/13 09:25:37;;;;;;;28.33;22.05;;;9.60;99.90;;;;;;4995973;28;20563;-72
2021/12/13 09:28:35;;;;;;;25.25;20.70;;;9.60;99.90;;;;;;4996059;28;20049;-72
2021/12/13 09:31:11;;;;;;;23.75;20.75;;;9.60;99.90;;;;;;5012272;28;20061;-72
2021/12/13 09:33:45;;;;;;;26.77;20.30;;;9.70;99.90;;;;;;4995917;28;20045;-72
2021/12/13 09:36:23;;;;;;;27.90;21.45;;;9.60;99.90;;;;;;4979635;28;20498;-71
2021/12/13 09:39:02;;;;;;;26.70;19.50;;;9.70;99.90;;;;;;4995892;28;20042;-71
2021/12/13 09:41:45;;;;;;;27.50;20.48;;;9.70;99.90;;;;;;4995895;28;20049;-71
2021/12/13 09:44:11;;;;;;;27.73;19.17;;;9.70;99.90;;;;;;4995989;28;20117;-72
2021/12/13 09:46:55;;;;;;;25.23;19.58;;;9.80;99.90;;;;;;4996008;28;20542;-72
2021/12/13 09:49:31;;;;;;;23.77;18.95;;;9.80;99.90;;;;;;4995802;28;20049;-72
2021/12/13 09:52:06;;;;;;;26.42;19.33;;;9.80;99.90;;;;;;4979871;28;20041;-72
2021/12/13 09:54:42;;;;;;;24.23;18.77;;;9.80;99.90;;;;;;4995570;28;20053;-72
2021/12/13 09:57:12;;;;;;;27.30;18.55;;;9.80;99.90;;;;;;4996015;28;20050;-72
2021/12/13 09:59:42;;;;;;;25.30;18.08;;;9.80;99.90;;;;;;4995663;28;20037;-72
2021/12/13 10:02:16;;;;;;;24.55;17.67;;;9.80;99.90;;;;;;4995674;28;20100;-72
2021/12/13 10:04:44;;;;;;;24.63;16.75;;;9.80;99.90;;;;;;4995825;28;20038;-72
2021/12/13 10:07:14;;;;;;;22.13;17.33;;;9.80;99.90;;;;;;4995604;28;20564;-72
2021/12/13 10:09:51;;;;;;;22.98;17.58;;;9.80;99.90;;;;;;4995918;28;20062;-72
2021/12/13 10:12:29;;;;;;;22.20;16.58;;;9.90;99.90;;;;;;4995530;28;20449;-72
2021/12/13 10:15:05;;;;;;;21.13;16.17;;;9.90;99.90;;;;;;4995301;28;20129;-72
2021/12/13 10:17:34;;;;;;;25.42;17.27;;;9.90;99.90;;;;;;4995831;28;20048;-72
2021/12/13 10:20:06;;;;;;;23.42;17.50;;;9.80;99.90;;;;;;4980082;28;20065;-72
2021/12/13 10:22:32;;;;;;;24.00;16.60;;;9.90;99.90;;;;;;4995756;28;20112;-72
2021/12/13 10:25:06;;;;;;;22.65;16.02;;;9.90;99.90;;;;;;4995504;28;20076;-72
2021/12/13 10:27:32;;;;;;;24.30;16.88;;;9.90;99.90;;;;;;4999174;28;20053;-72
2021/12/13 10:30:04;;;;;;;23.27;16.98;;;9.90;99.90;;;;;;4999405;28;20049;-72
2021/12/13 10:32:34;;;;;;;22.13;16.77;;;9.90;99.90;;;;;;4999220;28;20046;-72
2021/12/13 10:35:05;;;;;;;24.30;17.88;;;9.90;99.90;;;;;;4998950;28;20046;-72
2021/12/13 10:37:35;;;;;;;24.10;17.90;;;9.90;99.90;;;;;;4999316;28;20045;-72
2021/12/13 10:40:17;;;;;;;26.52;18.42;;;9.90;99.90;;;;;;4999102;28;20073;-72
2021/12/13 10:43:11;;;;;;;20.67;16.00;;;9.90;99.90;;;;;;4999031;28;20072;-72
2021/12/13 10:45:47;;;;;;;22.13;16.73;;;9.90;99.90;;;;;;4999137;28;20518;-72
2021/12/13 10:48:15;;;;;;;26.00;17.83;;;9.90;99.90;;;;;;4999120;28;20046;-72
2021/12/13 10:50:51;;;;;;;24.08;16.08;;;9.90;99.90;;;;;;4998862;28;20517;-72
2021/12/13 10:53:21;;;;;;;22.65;17.17;;;9.90;99.90;;;;;;4999310;28;20045;-72
2021/12/13 10:55:58;;;;;;;22.90;16.52;;;10.00;99.90;;;;;;4998561;28;20461;-72
2021/12/13 10:58:27;;;;;;;23.23;16.38;;;10.00;99.90;;;;;;4998706;28;20050;-71
2021/12/13 11:00:57;;;;;;;22.67;16.67;;;10.00;99.90;;;;;;4998885;28;20041;-71
2021/12/13 11:03:26;;;;;;;23.02;15.77;;;10.00;99.90;;;;;;4998623;28;20092;-71
2021/12/13 11:05:52;;;;;;;21.35;14.88;;;10.00;99.90;;;;;;4998477;28;20518;-71
2021/12/13 11:08:20;;;;;;;20.73;16.25;;;10.00;99.90;;;;;;4998751;28;20052;-72
2021/12/13 11:10:53;;;;;;;21.25;14.85;;;10.00;99.90;;;;;;4998659;28;20042;-72
2021/12/13 11:13:20;;;;;;;25.27;15.90;;;10.00;99.90;;;;;;4999254;28;20107;-72
2021/12/13 11:15:49;;;;;;;22.52;15.80;;;10.10;99.90;;;;;;4998178;28;20092;-71
2021/12/13 11:18:17;;;;;;;25.33;15.77;;;10.10;99.90;;;;;;4998508;28;20141;-71
2021/12/13 11:20:50;;;;;;;21.65;16.10;;;10.10;99.90;;;;;;4998299;28;20046;-71
2021/12/13 11:23:21;;;;;;;21.57;14.93;;;10.10;99.90;;;;;;4998458;28;20050;-71
2021/12/13 11:25:54;;;;;;;21.80;14.52;;;10.10;99.90;;;;;;4998188;28;20410;-71
2021/12/13 11:28:20;;;;;;;25.38;15.88;;;10.10;99.90;;;;;;4998296;28;20054;-71
2021/12/13 11:30:48;;;;;;;27.10;17.60;;;10.10;99.90;;;;;;4998107;28;20122;-72
2021/12/13 11:33:39;;;;;;;23.05;15.35;;;10.10;99.90;;;;;;4998089;28;20556;-72
2021/12/13 11:36:08;;;;;;;22.80;15.30;;;10.10;99.90;;;;;;4981572;28;20494;-72
2021/12/13 11:39:09;;;;;;;27.73;15.35;;;10.10;99.90;;;;;;4998150;28;20038;-71
2021/12/13 11:42:03;;;;;;;24.83;16.02;;;10.10;99.90;;;;;;4997944;28;20042;-71
2021/12/13 11:45:07;;;;;;;20.20;14.77;;;10.10;99.90;;;;;;4997881;28;20129;-72
2021/12/13 11:47:44;;;;;;;20.98;14.50;;;10.10;99.90;;;;;;4998095;28;20050;-72
2021/12/13 11:50:47;;;;;;;19.83;13.93;;;10.10;99.90;;;;;;4998039;28;20052;-72
2021/12/13 11:53:32;;;;;;;20.80;14.98;;;10.10;99.90;;;;;;4997716;28;20038;-72
2021/12/13 11:56:28;;;;;;;26.92;15.25;;;10.10;99.90;;;;;;4997977;28;20049;-72
2021/12/13 11:59:27;;;;;;;21.02;15.23;;;10.10;99.90;;;;;;4997938;28;20124;-72
2021/12/13 12:02:18;;;;;;;23.08;15.45;;;10.20;99.90;;;;;;4997872;28;20379;-71
2021/12/13 12:05:08;;;;;;;23.23;15.20;;;10.10;99.90;;;;;;4997718;28;20046;-72
2021/12/13 12:07:54;;;;;;;20.38;15.18;;;10.10;99.90;;;;;;4997675;28;20042;-71
2021/12/13 12:10:45;;;;;;;24.27;15.63;;;10.10;99.90;;;;;;4997712;28;20050;-71
2021/12/13 12:13:30;;;;;;;22.83;15.68;;;10.10;99.90;;;;;;4997403;28;20061;-71
2021/12/13 12:16:02;;;;;;;20.65;14.55;;;10.10;99.90;;;;;;4997640;28;20050;-71
2021/12/13 12:18:30;;;;;;;21.60;14.60;;;10.10;99.90;;;;;;4997456;28;20521;-71
2021/12/13 12:21:26;;;;;;;23.58;15.63;;;10.20;99.90;;;;;;4997249;28;20117;-71
2021/12/13 12:23:52;;;;;;;21.13;15.02;;;10.10;99.90;;;;;;4997229;28;20046;-71
2021/12/13 12:26:19;;;;;;;26.52;16.00;;;10.10;99.90;;;;;;4997032;28;20050;-71
2021/12/13 12:28:46;;;;;;;21.98;14.43;;;10.20;99.90;;;;;;4997278;28;20490;-72
2021/12/13 12:31:12;;;;;;;22.50;14.95;;;10.10;99.90;;;;;;4996978;28;20042;-72
2021/12/13 12:33:40;;;;;;;23.75;15.35;;;10.10;99.90;;;;;;4980650;28;20096;-72
2021/12/13 12:36:20;;;;;;;21.25;14.65;;;10.20;99.90;;;;;;4996837;28;20096;-72
2021/12/13 12:39:04;;;;;;;26.05;15.43;;;10.20;99.90;;;;;;4997211;28;20375;-72
2021/12/13 12:42:21;;;;;;;23.48;14.82;;;10.20;99.90;;;;;;4997025;28;20042;-72
2021/12/13 12:45:03;;;;;;;22.48;15.65;;;10.20;99.90;;;;;;4944120;28;20053;-72
2021/12/13 12:47:35;;;;;;;19.65;13.93;;;10.20;99.90;;;;;;4997039;28;20454;-71
2021/12/13 12:50:18;;;;;;;23.85;15.00;;;10.20;99.90;;;;;;4996116;28;20042;-72
2021/12/13 12:53:05;;;;;;;21.33;15.20;;;10.30;99.90;;;;;;4996580;28;20133;-72
2021/12/13 12:55:51;;;;;;;23.20;15.25;;;10.30;99.90;;;;;;4996588;28;20403;-72
2021/12/13 12:58:33;;;;;;;21.65;15.57;;;10.30;99.90;;;;;;4996585;28;20124;-72
2021/12/13 13:01:02;;;;;;;22.77;15.13;;;10.30;99.90;;;;;;4996774;28;20065;-72
2021/12/13 13:03:34;;;;;;;20.88;15.00;;;10.40;99.90;;;;;;4997473;28;20049;-72
2021/12/13 13:06:11;;;;;;;19.85;14.55;;;10.40;99.90;;;;;;4996503;28;20042;-72
2021/12/13 13:08:39;;;;;;;23.77;15.85;;;10.50;99.90;;;;;;4996401;28;20052;-72
2021/12/13 13:11:27;;;;;;;23.15;15.82;;;10.50;99.90;;;;;;4996347;28;20046;-72
2021/12/13 13:14:10;;;;;;;24.65;15.75;;;10.50;99.90;;;;;;4996002;28;20041;-72
2021/12/13 13:16:44;;;;;;;22.52;15.63;;;10.50;99.90;;;;;;4996259;28;20046;-72
2021/12/13 13:19:26;;;;;;;22.00;15.02;;;10.40;99.90;;;;;;4996496;28;20120;-72
2021/12/13 13:21:53;;;;;;;21.40;15.05;;;10.50;99.90;;;;;;4996205;28;20513;-72
2021/12/13 13:24:20;;;;;;;25.75;15.98;;;10.40;99.90;;;;;;4996335;28;20046;-72
2021/12/13 13:26:47;;;;;;;21.45;14.80;;;10.50;99.90;;;;;;4996368;28;20046;-72